Time;durP1;ratioP1;P1;durP2;ratioP2;P2;SDS_P1;SDS_P2;PMS_P1;PMS_P2;Temp;Humidity;BMP_temperature;BMP_pressure;BME280_temperature;BME280_humidity;BME280_pressure;Samples;Min_cycle;Max_cycle;Signal;HPM_P1;HPM_P2
2021/05/27 04:00:43;;;;;;;6.03;3.00;;;9.80;99.90;;;;;;5945996;22;20967;-64
2021/05/27 04:03:10;;;;;;;3.10;2.80;;;9.90;99.90;;;;;;5016063;28;20448;-64
2021/05/27 04:08:22;;;;;;;2.80;2.60;;;9.80;99.90;;;;;;5016394;28;20419;-63
2021/05/27 04:10:48;;;;;;;5.90;2.67;;;9.80;99.90;;;;;;5015766;28;20465;-64
2021/05/27 04:13:15;;;;;;;3.80;3.27;;;9.70;99.90;;;;;;5015974;28;20456;-64
2021/05/27 04:15:43;;;;;;;3.00;2.90;;;9.70;99.90;;;;;;5015915;28;20457;-64
2021/05/27 04:18:13;;;;;;;4.47;2.80;;;9.70;99.90;;;;;;5015841;28;20448;-64
2021/05/27 04:20:41;;;;;;;3.17;2.87;;;9.70;99.90;;;;;;5015645;28;20572;-64
2021/05/27 04:23:10;;;;;;;2.93;2.73;;;9.70;99.90;;;;;;5015587;28;20460;-64
2021/05/27 04:25:37;;;;;;;3.07;2.87;;;9.80;99.90;;;;;;5015769;28;20449;-64
2021/05/27 04:28:04;;;;;;;2.70;2.50;;;9.80;99.90;;;;;;5015116;28;20464;-64
2021/05/27 04:30:31;;;;;;;3.30;3.00;;;9.80;99.90;;;;;;5015555;28;20572;-64
2021/05/27 04:33:03;;;;;;;3.27;2.97;;;9.90;99.90;;;;;;5015795;28;20511;-64
2021/05/27 04:35:35;;;;;;;3.27;3.07;;;9.80;99.90;;;;;;5015678;28;20476;-64
2021/05/27 04:38:04;;;;;;;3.43;3.13;;;9.90;99.90;;;;;;5022349;28;20437;-64
2021/05/27 04:40:31;;;;;;;4.83;3.20;;;9.80;99.90;;;;;;5026209;28;20480;-64
2021/05/27 04:42:58;;;;;;;5.00;3.03;;;9.80;99.90;;;;;;5015412;28;20453;-64
2021/05/27 04:45:25;;;;;;;3.60;3.30;;;9.90;99.90;;;;;;5015502;28;20460;-65
2021/05/27 04:47:51;;;;;;;4.13;3.00;;;9.90;99.90;;;;;;5015544;28;20448;-64
2021/05/27 04:50:19;;;;;;;3.93;3.50;;;10.00;99.90;;;;;;5015280;28;20460;-64
2021/05/27 04:52:45;;;;;;;3.57;3.37;;;10.00;99.90;;;;;;5015231;28;20457;-64
2021/05/27 04:55:13;;;;;;;2.90;2.57;;;10.00;99.90;;;;;;5015125;28;20456;-64
2021/05/27 04:57:40;;;;;;;3.10;2.90;;;10.10;99.90;;;;;;5015091;28;20453;-64
2021/05/27 05:00:09;;;;;;;3.05;2.90;;;10.20;99.90;;;;;;5014141;28;20352;-64
2021/05/27 05:02:35;;;;;;;3.17;2.97;;;10.30;99.90;;;;;;5014748;28;20288;-65
2021/05/27 05:05:01;;;;;;;5.27;3.10;;;10.40;99.90;;;;;;5014944;28;20448;-65
2021/05/27 05:07:28;;;;;;;6.30;3.37;;;10.50;99.90;;;;;;5014707;28;20464;-65
2021/05/27 05:09:54;;;;;;;3.13;2.93;;;10.50;99.90;;;;;;5014395;28;20453;-64
2021/05/27 05:12:20;;;;;;;3.70;3.50;;;10.70;99.90;;;;;;5014689;28;20477;-64
2021/05/27 05:14:47;;;;;;;2.77;2.57;;;10.80;99.90;;;;;;5014691;28;20460;-65
2021/05/27 05:17:13;;;;;;;3.27;3.03;;;10.90;99.90;;;;;;5014736;28;20456;-64
2021/05/27 05:19:39;;;;;;;2.77;2.57;;;11.00;99.90;;;;;;5014533;28;20480;-64
2021/05/27 05:22:05;;;;;;;3.10;2.80;;;11.20;99.90;;;;;;5014485;28;20476;-64
2021/05/27 05:24:32;;;;;;;3.20;2.90;;;11.30;99.90;;;;;;5014665;28;20453;-64
2021/05/27 05:26:58;;;;;;;3.97;3.17;;;11.50;99.90;;;;;;5014737;28;20457;-63
2021/05/27 05:29:25;;;;;;;2.60;2.40;;;11.70;99.90;;;;;;5014694;28;20472;-64
2021/05/27 05:31:51;;;;;;;3.10;2.90;;;11.70;99.90;;;;;;5014778;28;20473;-63
2021/05/27 05:34:17;;;;;;;2.53;2.43;;;11.80;99.90;;;;;;5014182;28;20457;-64
2021/05/27 05:36:43;;;;;;;4.80;2.77;;;11.80;99.90;;;;;;5014511;28;20457;-64
2021/05/27 05:39:09;;;;;;;2.97;2.80;;;11.90;99.90;;;;;;5014795;28;20543;-64
2021/05/27 05:41:38;;;;;;;5.43;3.00;;;11.90;99.90;;;;;;5014435;28;20473;-63
2021/05/27 05:44:04;;;;;;;2.40;2.30;;;11.90;99.90;;;;;;5015437;28;20457;-62
2021/05/27 05:46:31;;;;;;;2.70;2.57;;;12.00;99.90;;;;;;5014788;28;20461;-64
2021/05/27 05:48:57;;;;;;;3.40;2.67;;;11.90;99.90;;;;;;5014364;28;20539;-63
2021/05/27 05:51:23;;;;;;;6.13;2.93;;;12.00;99.90;;;;;;5014709;28;20531;-64
2021/05/27 05:53:49;;;;;;;2.80;2.60;;;12.10;99.90;;;;;;5014074;28;20939;-63
2021/05/27 05:56:15;;;;;;;4.03;2.90;;;12.10;99.90;;;;;;5014143;28;20460;-64
2021/05/27 05:58:42;;;;;;;2.90;2.70;;;12.10;99.90;;;;;;5014157;28;20467;-64
2021/05/27 06:01:17;;;;;;;2.70;2.60;;;12.00;99.90;;;;;;5014877;28;20484;-64
2021/05/27 06:03:43;;;;;;;2.77;2.60;;;12.10;99.90;;;;;;5015742;28;20910;-64
2021/05/27 06:06:11;;;;;;;3.03;2.73;;;12.20;99.90;;;;;;5014197;28;20461;-64
2021/05/27 06:08:37;;;;;;;3.97;2.90;;;12.20;99.90;;;;;;5014247;28;20463;-64
2021/05/27 06:11:04;;;;;;;3.53;2.50;;;12.50;99.90;;;;;;5018248;28;20468;-63
2021/05/27 06:13:30;;;;;;;2.60;2.40;;;12.60;99.90;;;;;;5020486;28;20838;-63
2021/05/27 06:15:57;;;;;;;2.50;2.37;;;12.80;99.90;;;;;;5020837;28;20453;-63
2021/05/27 06:18:24;;;;;;;2.63;2.43;;;12.90;99.90;;;;;;5020723;28;20456;-63
2021/05/27 06:20:50;;;;;;;4.57;2.30;;;13.10;99.90;;;;;;5020499;28;20488;-64
2021/05/27 06:23:16;;;;;;;2.47;2.33;;;13.30;99.90;;;;;;5020340;28;20537;-62
2021/05/27 06:25:42;;;;;;;2.43;1.93;;;13.50;99.90;;;;;;5020510;28;20452;-64
2021/05/27 06:28:09;;;;;;;3.40;2.27;;;13.80;99.90;;;;;;5020273;28;20798;-63
2021/05/27 06:30:35;;;;;;;2.23;2.13;;;14.20;99.90;;;;;;5020537;28;20469;-61
2021/05/27 06:33:02;;;;;;;4.23;2.40;;;14.40;99.90;;;;;;5020426;28;20456;-62
2021/05/27 06:35:30;;;;;;;3.00;2.70;;;14.60;99.90;;;;;;5020722;28;20453;-62
2021/05/27 06:37:56;;;;;;;2.30;2.10;;;14.90;99.90;;;;;;5020466;28;20543;-62
2021/05/27 06:40:25;;;;;;;2.40;1.83;;;15.30;99.90;;;;;;5020434;28;20480;-62
2021/05/27 06:42:52;;;;;;;1.73;1.60;;;15.50;99.90;;;;;;5020393;28;20927;-62
2021/05/27 06:45:19;;;;;;;1.73;1.63;;;15.70;99.90;;;;;;5020529;28;20452;-61
2021/05/27 06:47:48;;;;;;;3.53;1.80;;;16.30;99.90;;;;;;5019997;28;20457;-62
2021/05/27 06:50:16;;;;;;;2.10;1.43;;;16.80;99.90;;;;;;5019790;28;21042;-62
2021/05/27 06:52:43;;;;;;;1.90;1.43;;;17.40;99.90;;;;;;5020082;28;21009;-62
2021/05/27 06:55:10;;;;;;;2.83;1.90;;;17.80;99.90;;;;;;5019813;28;20460;-61
2021/05/27 06:57:37;;;;;;;2.10;1.67;;;18.40;99.90;;;;;;5019703;28;20456;-61
2021/05/27 07:00:07;;;;;;;2.43;1.63;;;18.90;99.90;;;;;;5019741;28;20480;-61
2021/05/27 07:02:33;;;;;;;1.53;1.43;;;19.70;99.90;;;;;;5019630;28;20492;-62
2021/05/27 07:05:00;;;;;;;2.00;1.40;;;20.00;99.90;;;;;;5020038;28;20460;-62
2021/05/27 07:07:27;;;;;;;1.90;1.70;;;20.40;99.90;;;;;;5020174;28;20453;-63
2021/05/27 07:09:53;;;;;;;2.37;1.47;;;20.20;98.30;;;;;;5020107;28;20457;-62
2021/05/27 07:12:19;;;;;;;1.50;1.40;;;19.70;99.00;;;;;;5020133;28;20472;-63
2021/05/27 07:14:45;;;;;;;4.27;1.57;;;20.00;98.30;;;;;;5020034;28;20463;-62
2021/05/27 07:17:12;;;;;;;3.17;1.63;;;20.30;99.10;;;;;;5020023;28;20494;-63
2021/05/27 07:19:38;;;;;;;1.47;1.37;;;19.90;98.40;;;;;;5019431;28;20974;-62
2021/05/27 07:22:04;;;;;;;1.57;1.47;;;19.70;97.80;;;;;;5017520;28;20477;-62
2021/05/27 07:24:31;;;;;;;2.60;1.40;;;20.00;96.50;;;;;;5016806;28;20456;-63
2021/05/27 07:26:57;;;;;;;1.80;1.40;;;20.20;95.50;;;;;;5016543;28;20453;-64
2021/05/27 07:29:24;;;;;;;1.20;1.20;;;20.70;95.20;;;;;;5016527;28;20460;-63
2021/05/27 07:31:50;;;;;;;2.40;1.37;;;21.40;94.70;;;;;;5018154;28;20476;-65
2021/05/27 07:34:16;;;;;;;2.83;1.77;;;21.80;92.70;;;;;;5021224;28;20587;-62
2021/05/27 07:36:42;;;;;;;2.63;1.73;;;22.20;89.70;;;;;;5019949;28;20461;-63
2021/05/27 07:39:08;;;;;;;2.10;1.30;;;22.00;88.90;;;;;;5019717;28;20968;-64
2021/05/27 07:41:35;;;;;;;1.87;1.77;;;22.70;87.50;;;;;;5018873;28;20488;-63
2021/05/27 07:44:02;;;;;;;2.20;1.57;;;22.60;86.60;;;;;;5017805;28;20975;-64
2021/05/27 07:46:28;;;;;;;1.63;1.50;;;23.10;86.20;;;;;;5016883;28;20495;-63
2021/05/27 07:48:55;;;;;;;2.40;1.67;;;23.60;82.00;;;;;;5016248;28;20862;-63
2021/05/27 07:51:21;;;;;;;1.53;1.40;;;23.40;82.10;;;;;;5018101;28;20978;-64
2021/05/27 07:53:47;;;;;;;2.20;1.50;;;23.20;81.50;;;;;;5018102;28;20479;-63
2021/05/27 07:56:14;;;;;;;2.00;1.80;;;23.00;77.30;;;;;;5017039;28;20947;-63
2021/05/27 07:58:41;;;;;;;2.57;1.60;;;22.60;81.70;;;;;;5017517;28;21014;-63
2021/05/27 08:01:07;;;;;;;1.97;1.67;;;22.50;82.70;;;;;;5016859;28;20495;-63
2021/05/27 08:03:33;;;;;;;2.10;2.00;;;22.20;75.10;;;;;;5017877;28;20457;-63
2021/05/27 08:06:00;;;;;;;1.80;1.60;;;22.30;80.40;;;;;;5017826;28;20815;-63
2021/05/27 08:08:26;;;;;;;1.33;1.33;;;22.30;82.30;;;;;;5017013;28;20499;-62
2021/05/27 08:10:52;;;;;;;2.10;1.53;;;22.90;81.80;;;;;;5015905;28;20831;-63
2021/05/27 08:13:19;;;;;;;1.50;1.40;;;23.30;76.20;;;;;;5015980;28;20496;-63
2021/05/27 08:15:46;;;;;;;7.23;2.33;;;23.90;78.20;;;;;;5015714;28;21057;-63
2021/05/27 08:18:12;;;;;;;1.80;1.50;;;24.50;76.10;;;;;;5016192;28;20456;-63
2021/05/27 08:20:38;;;;;;;2.17;1.90;;;24.70;72.60;;;;;;5017151;28;20488;-63
2021/05/27 08:23:05;;;;;;;2.83;1.77;;;25.00;71.10;;;;;;5017992;28;20456;-62
2021/05/27 08:25:31;;;;;;;2.00;1.30;;;24.60;68.70;;;;;;5019459;28;20935;-62
2021/05/27 08:27:57;;;;;;;1.90;1.60;;;25.00;72.10;;;;;;5018897;28;20453;-62
2021/05/27 08:30:24;;;;;;;1.37;1.30;;;25.00;71.30;;;;;;5019567;28;20941;-62
2021/05/27 08:32:52;;;;;;;1.30;1.13;;;25.20;70.50;;;;;;5019214;28;20445;-62
2021/05/27 08:35:18;;;;;;;1.47;1.37;;;24.70;70.60;;;;;;5019367;28;20434;-63
2021/05/27 08:37:44;;;;;;;3.30;1.57;;;24.40;68.90;;;;;;5017878;28;20468;-63
2021/05/27 08:40:11;;;;;;;1.53;1.30;;;23.50;69.00;;;;;;5017109;28;20473;-63
2021/05/27 08:42:38;;;;;;;1.80;1.33;;;22.80;74.20;;;;;;5017948;28;20456;-63
2021/05/27 08:45:08;;;;;;;2.00;1.80;;;22.40;76.00;;;;;;5018698;28;20468;-63
2021/05/27 08:47:35;;;;;;;1.20;1.13;;;22.50;76.10;;;;;;5019960;28;20440;-63
2021/05/27 08:50:05;;;;;;;1.00;1.00;;;23.00;77.40;;;;;;5020750;28;20448;-63
2021/05/27 08:52:31;;;;;;;2.03;1.57;;;23.80;71.10;;;;;;5018101;28;20508;-63
2021/05/27 08:54:57;;;;;;;1.53;1.40;;;24.60;68.30;;;;;;5016645;28;20923;-63
2021/05/27 08:57:24;;;;;;;1.90;1.40;;;25.00;68.90;;;;;;5018299;28;20495;-63
2021/05/27 08:59:50;;;;;;;3.53;1.53;;;24.40;64.10;;;;;;5018447;28;20487;-64
2021/05/27 09:02:16;;;;;;;1.47;1.37;;;24.40;70.00;;;;;;5014881;28;20485;-63
2021/05/27 09:04:42;;;;;;;1.40;1.30;;;24.20;68.10;;;;;;5014941;28;20457;-63
2021/05/27 09:07:12;;;;;;;4.50;1.53;;;24.20;70.10;;;;;;5014853;28;20484;-63
2021/05/27 09:09:53;;;;;;;1.97;1.60;;;24.30;70.20;;;;;;5014910;28;20445;-63
2021/05/27 09:12:33;;;;;;;1.30;1.20;;;23.80;71.10;;;;;;5014380;28;20488;-63
2021/05/27 09:15:04;;;;;;;1.73;1.47;;;24.20;71.60;;;;;;5014892;28;20456;-63
2021/05/27 09:17:43;;;;;;;1.63;1.23;;;23.60;71.10;;;;;;5014843;28;20451;-62
2021/05/27 09:20:15;;;;;;;2.10;1.63;;;23.50;75.40;;;;;;5014793;28;20464;-62
2021/05/27 09:22:43;;;;;;;1.60;1.33;;;24.10;69.00;;;;;;5014890;28;20930;-63
2021/05/27 09:25:23;;;;;;;4.60;1.30;;;24.60;69.30;;;;;;5015352;28;20452;-61
2021/05/27 09:27:50;;;;;;;1.37;1.20;;;24.90;68.40;;;;;;5014597;28;20926;-60
2021/05/27 09:30:17;;;;;;;1.30;1.20;;;25.00;67.90;;;;;;5014286;28;20875;-63
2021/05/27 09:32:46;;;;;;;1.50;1.20;;;25.50;67.00;;;;;;5014320;28;20452;-62
2021/05/27 09:35:14;;;;;;;1.87;1.50;;;26.10;60.90;;;;;;5014558;28;20476;-64
2021/05/27 09:37:47;;;;;;;1.60;1.43;;;25.50;60.20;;;;;;5014177;28;20464;-63
2021/05/27 09:40:28;;;;;;;1.37;1.27;;;25.00;63.50;;;;;;5014030;28;20556;-64
2021/05/27 09:42:55;;;;;;;3.63;2.10;;;24.70;65.00;;;;;;5014443;28;20532;-63
2021/05/27 09:45:22;;;;;;;1.87;1.77;;;24.00;64.40;;;;;;5013737;28;20452;-63
2021/05/27 09:47:48;;;;;;;1.50;1.40;;;23.70;64.80;;;;;;5014124;28;20457;-63
2021/05/27 09:50:15;;;;;;;1.30;1.20;;;23.50;65.10;;;;;;5016769;28;20449;-62
2021/05/27 09:52:43;;;;;;;1.67;1.67;;;23.30;68.10;;;;;;5017102;28;20457;-64
2021/05/27 09:55:12;;;;;;;1.83;1.40;;;23.10;68.80;;;;;;5014043;28;20452;-62
2021/05/27 09:57:40;;;;;;;2.17;1.67;;;22.00;69.00;;;;;;5014023;28;20463;-63
2021/05/27 10:00:23;;;;;;;2.20;2.00;;;21.50;70.50;;;;;;5013950;28;20480;-63
2021/05/27 10:02:50;;;;;;;2.30;2.10;;;20.90;73.00;;;;;;5014005;28;20433;-63
2021/05/27 10:05:17;;;;;;;2.13;2.03;;;20.00;75.50;;;;;;5013986;28;20510;-64
2021/05/27 10:07:45;;;;;;;2.77;1.27;;;19.50;76.10;;;;;;5013910;28;20445;-63
2021/05/27 10:10:15;;;;;;;4.80;2.33;;;19.10;79.80;;;;;;5014147;28;20499;-63
2021/05/27 10:12:44;;;;;;;3.23;1.87;;;18.80;81.40;;;;;;5013859;28;20437;-62
2021/05/27 10:15:13;;;;;;;2.20;1.73;;;18.40;82.30;;;;;;5013941;28;20494;-65
2021/05/27 10:17:40;;;;;;;3.27;2.30;;;18.10;85.20;;;;;;5013744;28;20437;-63
2021/05/27 10:20:08;;;;;;;4.93;2.30;;;17.70;86.50;;;;;;5013813;28;20464;-64
2021/05/27 10:22:35;;;;;;;2.50;1.77;;;17.40;87.90;;;;;;5013896;28;20499;-65
2021/05/27 10:25:04;;;;;;;3.97;2.37;;;17.40;90.30;;;;;;5013736;28;20502;-65
2021/05/27 10:27:31;;;;;;;2.60;1.80;;;17.20;91.40;;;;;;5013627;28;20578;-64
2021/05/27 10:29:58;;;;;;;1.97;1.87;;;17.10;91.60;;;;;;5013773;28;20453;-64
2021/05/27 10:32:25;;;;;;;3.23;2.20;;;17.00;91.00;;;;;;5014358;28;20476;-64
2021/05/27 10:34:52;;;;;;;1.80;1.70;;;16.80;92.60;;;;;;5013584;28;20775;-64
2021/05/27 10:37:46;;;;;;;3.33;2.00;;;17.00;93.20;;;;;;5013589;28;20464;-63
2021/05/27 10:40:40;;;;;;;1.93;1.90;;;17.30;92.60;;;;;;5013501;28;20496;-64
2021/05/27 10:43:12;;;;;;;3.67;2.20;;;17.60;93.80;;;;;;5013315;28;20433;-64
2021/05/27 10:46:04;;;;;;;2.73;2.13;;;18.00;92.60;;;;;;5013331;28;20453;-62
2021/05/27 10:48:32;;;;;;;2.17;2.00;;;18.40;91.50;;;;;;5013648;28;20820;-63
2021/05/27 10:51:08;;;;;;;1.80;1.70;;;18.90;90.50;;;;;;5013348;28;20471;-62
2021/05/27 10:54:04;;;;;;;3.67;2.43;;;19.40;91.60;;;;;;5013514;28;20437;-63
2021/05/27 10:56:43;;;;;;;2.93;2.10;;;20.40;92.20;;;;;;5013630;28;20496;-62
2021/05/27 10:59:14;;;;;;;3.67;1.67;;;21.20;89.70;;;;;;5018514;28;20495;-62
2021/05/27 11:02:08;;;;;;;1.70;1.60;;;22.00;85.10;;;;;;5016782;28;20485;-62
2021/05/27 11:04:40;;;;;;;2.00;1.73;;;22.60;82.30;;;;;;5017083;28;20433;-62
2021/05/27 11:07:15;;;;;;;2.53;1.70;;;22.90;80.10;;;;;;5017214;28;20475;-62
2021/05/27 11:09:43;;;;;;;2.90;1.67;;;22.90;74.00;;;;;;5017231;28;20440;-62
2021/05/27 11:12:20;;;;;;;2.13;2.00;;;23.10;81.70;;;;;;5017159;28;20472;-64
2021/05/27 11:15:03;;;;;;;3.60;2.20;;;23.60;74.80;;;;;;5016925;28;20436;-63
2021/05/27 11:17:29;;;;;;;1.80;1.70;;;23.80;74.40;;;;;;5016947;28;20437;-62
2021/05/27 11:19:59;;;;;;;2.60;2.40;;;23.50;75.90;;;;;;5016926;28;20481;-63
2021/05/27 11:22:50;;;;;;;1.97;1.70;;;23.20;71.80;;;;;;5016751;28;20472;-62
2021/05/27 11:25:37;;;;;;;2.03;1.80;;;23.20;75.00;;;;;;5016409;28;20443;-63
2021/05/27 11:28:25;;;;;;;5.50;2.27;;;23.20;73.90;;;;;;5016808;28;20441;-63
2021/05/27 11:30:56;;;;;;;2.80;1.80;;;23.10;77.60;;;;;;5016964;28;20501;-64
2021/05/27 11:33:37;;;;;;;4.20;1.47;;;22.90;76.40;;;;;;5017357;28;20475;-62
2021/05/27 11:36:12;;;;;;;1.30;1.30;;;22.30;77.00;;;;;;5017382;28;20491;-63
2021/05/27 11:38:40;;;;;;;1.50;1.40;;;22.30;80.20;;;;;;5016605;28;20452;-63
2021/05/27 11:41:09;;;;;;;1.73;1.60;;;22.30;77.00;;;;;;5016551;28;20511;-64
2021/05/27 11:43:38;;;;;;;1.73;1.63;;;22.50;81.30;;;;;;5016806;28;20457;-63
2021/05/27 11:46:07;;;;;;;4.00;1.60;;;22.40;75.70;;;;;;5016359;28;20453;-64
2021/05/27 11:48:37;;;;;;;1.63;1.63;;;22.40;75.90;;;;;;5017979;28;20453;-63
2021/05/27 11:51:07;;;;;;;1.80;1.70;;;22.40;78.20;;;;;;5020327;28;20465;-63
2021/05/27 11:53:46;;;;;;;2.87;1.50;;;22.30;80.50;;;;;;5016584;28;20551;-63
2021/05/27 11:56:15;;;;;;;1.63;1.53;;;22.10;83.30;;;;;;5016656;28;20535;-63
2021/05/27 11:58:43;;;;;;;1.60;1.50;;;22.00;78.40;;;;;;5016272;28;20860;-63
2021/05/27 12:01:17;;;;;;;1.47;1.37;;;22.20;76.20;;;;;;5016388;28;20923;-63
2021/05/27 12:04:17;;;;;;;2.30;1.63;;;22.40;77.80;;;;;;5016372;28;20452;-63
2021/05/27 12:06:52;;;;;;;2.20;1.67;;;22.70;77.50;;;;;;4974921;28;20439;-63
2021/05/27 12:09:23;;;;;;;2.67;1.57;;;22.90;74.30;;;;;;4974249;28;20446;-63
2021/05/27 12:11:51;;;;;;;2.90;1.60;;;22.50;81.20;;;;;;4997002;28;20487;-63
2021/05/27 12:14:17;;;;;;;5.93;1.60;;;22.40;78.90;;;;;;5015891;28;20785;-62
2021/05/27 12:16:44;;;;;;;1.70;1.60;;;22.40;76.40;;;;;;5016165;28;20455;-63
2021/05/27 12:19:12;;;;;;;3.83;1.83;;;22.20;76.20;;;;;;5015918;28;20449;-64
2021/05/27 12:21:54;;;;;;;1.93;1.40;;;22.00;77.90;;;;;;5016475;28;20871;-63
2021/05/27 12:24:27;;;;;;;1.90;1.60;;;21.80;77.30;;;;;;5016085;28;20433;-67
2021/05/27 12:26:54;;;;;;;2.10;1.63;;;21.90;80.10;;;;;;5016016;28;20970;-65
2021/05/27 12:29:21;;;;;;;1.93;1.20;;;21.90;78.00;;;;;;5016207;28;20457;-65
2021/05/27 12:31:49;;;;;;;1.73;1.33;;;21.90;79.00;;;;;;5015778;28;20472;-65
2021/05/27 12:34:16;;;;;;;1.30;1.30;;;22.00;76.00;;;;;;5015940;28;20460;-65
2021/05/27 12:36:54;;;;;;;1.90;1.60;;;22.00;78.80;;;;;;5016400;28;20829;-65
2021/05/27 12:39:35;;;;;;;1.87;1.47;;;22.00;82.00;;;;;;5016010;28;20448;-65
2021/05/27 12:42:04;;;;;;;2.67;1.80;;;22.10;79.60;;;;;;5015850;28;20476;-65
2021/05/27 12:44:38;;;;;;;1.80;1.70;;;21.90;79.20;;;;;;5015547;28;20461;-65
2021/05/27 12:47:18;;;;;;;1.23;1.13;;;21.70;77.70;;;;;;5015617;28;20443;-65
2021/05/27 12:49:46;;;;;;;4.03;1.67;;;21.10;72.50;;;;;;5015795;28;20456;-64
2021/05/27 12:52:13;;;;;;;1.73;1.63;;;21.20;79.10;;;;;;5015846;28;20539;-64
2021/05/27 12:54:39;;;;;;;3.50;2.23;;;21.00;81.20;;;;;;5016115;28;20488;-65
2021/05/27 12:57:08;;;;;;;1.60;1.50;;;21.40;82.40;;;;;;5016281;28;20464;-64
2021/05/27 12:59:35;;;;;;;1.60;1.50;;;21.40;79.80;;;;;;5015609;28;20459;-64
2021/05/27 13:02:04;;;;;;;1.53;1.43;;;21.30;80.90;;;;;;5015519;28;20485;-64
2021/05/27 13:04:33;;;;;;;2.97;1.80;;;21.40;80.50;;;;;;5015625;28;20539;-64
2021/05/27 13:07:11;;;;;;;1.93;1.83;;;21.00;81.30;;;;;;5015346;28;20457;-66
2021/05/27 13:09:49;;;;;;;3.63;3.00;;;20.60;80.60;;;;;;5015193;28;20522;-65
2021/05/27 13:12:19;;;;;;;123.30;65.03;;;20.30;84.70;;;;;;5015086;28;20579;-65
2021/05/27 13:15:01;;;;;;;3.30;2.80;;;20.00;85.00;;;;;;5015488;28;20444;-64
2021/05/27 13:17:27;;;;;;;2.70;2.50;;;19.80;84.80;;;;;;5015536;28;20564;-65
2021/05/27 13:19:56;;;;;;;5.60;3.87;;;19.60;86.00;;;;;;5014830;28;20477;-65
2021/05/27 13:22:25;;;;;;;2.20;2.00;;;19.50;86.00;;;;;;5015152;28;20480;-65
2021/05/27 13:25:00;;;;;;;3.63;2.00;;;19.40;84.40;;;;;;5014933;28;20930;-65
2021/05/27 13:27:32;;;;;;;2.67;1.70;;;19.30;85.40;;;;;;5015469;28;20444;-65
2021/05/27 13:30:00;;;;;;;3.13;1.80;;;19.10;85.50;;;;;;5015242;28;20436;-66
2021/05/27 13:32:28;;;;;;;2.50;2.00;;;19.20;88.10;;;;;;5015866;28;20469;-65
2021/05/27 13:34:58;;;;;;;5.93;2.20;;;19.30;88.60;;;;;;5014822;28;20939;-65
2021/05/27 13:37:27;;;;;;;4.70;2.00;;;19.20;89.70;;;;;;5014319;28;20927;-65
2021/05/27 13:39:53;;;;;;;4.93;1.47;;;19.10;90.10;;;;;;5014959;28;20480;-63
2021/05/27 13:42:19;;;;;;;3.40;2.10;;;18.90;88.30;;;;;;5014793;28;20539;-66
2021/05/27 13:44:47;;;;;;;5.30;2.00;;;18.80;90.00;;;;;;5014933;28;20453;-67
2021/05/27 13:47:13;;;;;;;2.20;1.50;;;18.90;90.10;;;;;;5018057;28;20460;-66
2021/05/27 13:49:39;;;;;;;1.77;1.67;;;18.70;87.60;;;;;;5014665;28;20841;-66
2021/05/27 13:52:06;;;;;;;1.93;1.63;;;18.50;88.90;;;;;;5014449;28;20476;-66
2021/05/27 13:54:33;;;;;;;2.53;2.20;;;18.40;90.90;;;;;;5014195;28;20453;-66
2021/05/27 13:56:59;;;;;;;1.90;1.70;;;18.40;90.40;;;;;;5015083;28;20943;-67
2021/05/27 13:59:26;;;;;;;1.97;1.87;;;18.20;90.90;;;;;;5018005;28;20453;-66
2021/05/27 14:01:53;;;;;;;2.53;1.40;;;18.30;91.10;;;;;;5016782;28;20489;-66
2021/05/27 14:04:20;;;;;;;6.03;2.10;;;18.50;90.60;;;;;;5019618;28;20515;-66
2021/05/27 14:06:46;;;;;;;3.90;1.73;;;18.60;91.20;;;;;;5021908;28;20440;-66
2021/05/27 14:09:12;;;;;;;1.93;1.50;;;18.60;89.60;;;;;;5020451;28;20860;-65
2021/05/27 14:11:39;;;;;;;3.03;1.53;;;18.70;91.20;;;;;;5020280;28;20480;-67
2021/05/27 14:14:07;;;;;;;2.13;1.70;;;18.90;91.50;;;;;;5015373;28;20982;-66
2021/05/27 14:16:33;;;;;;;1.60;1.50;;;19.10;91.20;;;;;;5014297;28;20908;-66
2021/05/27 14:19:00;;;;;;;5.40;1.70;;;18.90;90.10;;;;;;5014310;28;20452;-66
2021/05/27 14:21:26;;;;;;;1.53;1.50;;;18.90;89.50;;;;;;5014087;28;20481;-67
2021/05/27 14:23:52;;;;;;;1.77;1.70;;;18.60;87.20;;;;;;5014335;28;20457;-67
2021/05/27 14:26:19;;;;;;;2.80;1.60;;;18.30;88.30;;;;;;5015332;28;20459;-67
2021/05/27 14:28:45;;;;;;;1.60;1.50;;;17.90;90.00;;;;;;5014336;28;20461;-67
2021/05/27 14:31:15;;;;;;;2.10;1.47;;;17.80;90.90;;;;;;5015329;28;20523;-67
2021/05/27 14:33:41;;;;;;;1.73;1.63;;;17.80;90.20;;;;;;5017657;28;20460;-67
2021/05/27 14:36:08;;;;;;;1.60;1.50;;;17.60;90.70;;;;;;5017995;28;20449;-67
2021/05/27 14:38:34;;;;;;;6.17;1.77;;;17.70;91.30;;;;;;5018088;28;20463;-66
2021/05/27 14:41:01;;;;;;;4.17;2.07;;;17.40;91.80;;;;;;5018083;28;20566;-67
2021/05/27 14:43:27;;;;;;;2.00;1.57;;;17.40;93.30;;;;;;5017725;28;20457;-66
2021/05/27 14:45:53;;;;;;;1.50;1.43;;;17.60;94.20;;;;;;5017604;28;20452;-66
2021/05/27 14:48:19;;;;;;;1.77;1.67;;;17.60;93.50;;;;;;5017417;28;20864;-67
2021/05/27 14:50:45;;;;;;;2.93;1.30;;;17.60;92.40;;;;;;5017521;28;20523;-67
2021/05/27 14:53:12;;;;;;;1.30;1.20;;;17.60;92.40;;;;;;5017759;28;20543;-67
2021/05/27 14:55:39;;;;;;;1.83;1.40;;;17.40;91.60;;;;;;5018232;28;20461;-68
2021/05/27 14:58:05;;;;;;;1.20;1.20;;;17.40;92.60;;;;;;5017606;28;20479;-66
2021/05/27 15:00:31;;;;;;;1.67;1.37;;;17.50;92.20;;;;;;5017302;28;20476;-66
2021/05/27 15:02:57;;;;;;;3.07;1.73;;;17.40;91.50;;;;;;5017362;28;20908;-67
2021/05/27 15:05:24;;;;;;;4.13;1.60;;;17.40;92.40;;;;;;5017734;28;20471;-67
2021/05/27 15:07:50;;;;;;;1.10;1.10;;;17.40;92.40;;;;;;5017332;28;20472;-66
2021/05/27 15:10:17;;;;;;;3.07;1.63;;;17.50;91.90;;;;;;5016992;28;20824;-67
2021/05/27 15:12:43;;;;;;;1.60;1.50;;;17.50;92.50;;;;;;5017129;28;20794;-67
2021/05/27 15:15:12;;;;;;;2.00;1.50;;;17.60;91.50;;;;;;5017411;28;20452;-67
2021/05/27 15:17:38;;;;;;;4.07;1.27;;;17.50;91.20;;;;;;5016680;28;20943;-67
2021/05/27 15:20:07;;;;;;;1.60;1.50;;;17.60;92.20;;;;;;5017081;28;20480;-68
2021/05/27 15:22:33;;;;;;;1.73;1.63;;;17.70;92.80;;;;;;5016992;28;20483;-67
2021/05/27 15:24:59;;;;;;;2.13;1.53;;;17.50;92.30;;;;;;5017100;28;20496;-66
2021/05/27 15:27:26;;;;;;;1.40;1.40;;;17.40;92.20;;;;;;5017131;28;20491;-67
2021/05/27 15:29:56;;;;;;;2.90;1.20;;;17.40;92.20;;;;;;5017499;28;20444;-67
2021/05/27 15:32:22;;;;;;;1.90;1.80;;;17.50;93.40;;;;;;5016875;28;20496;-66
2021/05/27 15:34:50;;;;;;;1.57;1.40;;;17.40;92.60;;;;;;5016825;28;20951;-66
2021/05/27 15:37:19;;;;;;;1.53;1.47;;;17.50;93.70;;;;;;5016583;28;20452;-67
2021/05/27 15:39:46;;;;;;;1.43;1.43;;;17.70;93.70;;;;;;5019389;28;20462;-67
2021/05/27 15:42:12;;;;;;;2.07;1.67;;;17.80;92.50;;;;;;5018088;28;20838;-66
2021/05/27 15:44:39;;;;;;;1.80;1.70;;;17.80;93.10;;;;;;5016405;28;20457;-68
2021/05/27 15:47:05;;;;;;;1.70;1.60;;;17.80;92.70;;;;;;5016914;28;20799;-67
2021/05/27 15:49:31;;;;;;;1.67;1.57;;;17.80;92.10;;;;;;5016811;28;20456;-67
2021/05/27 15:51:58;;;;;;;4.43;1.50;;;17.70;92.10;;;;;;5016834;28;20469;-67
2021/05/27 15:54:24;;;;;;;1.13;1.10;;;17.70;92.20;;;;;;5016714;28;20450;-67
2021/05/27 15:56:50;;;;;;;2.37;1.43;;;17.80;92.00;;;;;;5016340;28;20457;-67
2021/05/27 15:59:16;;;;;;;1.40;1.30;;;17.80;91.40;;;;;;5017439;28;20465;-66
2021/05/27 16:01:44;;;;;;;2.40;1.30;;;17.70;91.40;;;;;;5015955;28;20492;-67
2021/05/27 16:04:10;;;;;;;1.47;1.40;;;17.80;92.10;;;;;;5016259;28;20464;-67
2021/05/27 16:06:36;;;;;;;1.70;1.63;;;17.80;95.40;;;;;;5016083;28;20764;-67
2021/05/27 16:09:03;;;;;;;2.03;1.93;;;17.60;91.70;;;;;;5016034;28;20452;-68
2021/05/27 16:11:29;;;;;;;1.80;1.60;;;17.50;92.70;;;;;;5015959;28;20983;-67
2021/05/27 16:13:55;;;;;;;3.13;1.77;;;17.40;92.50;;;;;;5016138;28;20449;-67
2021/05/27 16:16:22;;;;;;;2.83;1.70;;;17.40;93.20;;;;;;5016142;28;20455;-67
2021/05/27 16:18:49;;;;;;;2.00;1.90;;;17.40;93.80;;;;;;5015539;28;21009;-67
2021/05/27 16:21:15;;;;;;;2.30;1.50;;;17.50;93.30;;;;;;5015727;28;20492;-67
2021/05/27 16:23:41;;;;;;;2.43;2.00;;;17.60;93.70;;;;;;5015862;28;21034;-67
2021/05/27 16:26:07;;;;;;;1.60;1.50;;;17.60;92.50;;;;;;5016295;28;20456;-67
2021/05/27 16:28:33;;;;;;;1.60;1.50;;;17.60;92.80;;;;;;5015966;28;20837;-68
2021/05/27 16:31:00;;;;;;;4.03;1.80;;;17.70;93.30;;;;;;5015966;28;20469;-65
2021/05/27 16:33:26;;;;;;;1.80;1.70;;;17.70;94.20;;;;;;5015976;28;20452;-68
2021/05/27 16:38:51;;;;;;;1.80;1.80;;;17.50;98.00;;;;;;4955737;29;20534;-67
2021/05/27 16:41:18;;;;;;;1.90;1.80;;;17.40;98.80;;;;;;4954727;28;20490;-68
2021/05/27 16:43:44;;;;;;;1.63;1.60;;;17.50;98.70;;;;;;4981121;28;20808;-68
2021/05/27 16:46:10;;;;;;;2.33;2.13;;;17.50;99.70;;;;;;5016012;28;20457;-67
2021/05/27 16:48:38;;;;;;;2.13;2.03;;;17.30;99.60;;;;;;5015338;28;20575;-67
2021/05/27 16:51:07;;;;;;;8.60;2.77;;;17.20;99.70;;;;;;5015063;28;20960;-68
2021/05/27 16:53:34;;;;;;;2.70;2.10;;;17.20;99.90;;;;;;5015005;28;20467;-67
2021/05/27 16:56:01;;;;;;;2.47;1.90;;;17.30;99.90;;;;;;5015086;28;20457;-67
2021/05/27 16:58:27;;;;;;;3.10;2.00;;;17.40;99.90;;;;;;5015050;28;20531;-66
2021/05/27 17:00:54;;;;;;;2.40;2.00;;;17.40;99.90;;;;;;5014787;28;20485;-67